This is the latest recevied weather packets stored in our database for station/object vk4vs. If no packets are shown the sender has not sent any weather packets the latest 10 day(s).
| Time | Temp. | Humidity | Pressure | Rain* | Wind** | Luminosity | Snow |
|---|---|---|---|---|---|---|---|
| 1777861853 | 21.11° C | 59% | 1017.4 hPa | 0 mm | - | - | - |
| 1777860054 | 20.56° C | 61% | 1018.1 hPa | 0 mm | - | - | - |
| 1777858253 | 20° C | 64% | 1018.4 hPa | 0 mm | - | - | - |
| 1777856454 | 19.44° C | 71% | 1018.8 hPa | 0 mm | - | - | - |
| 1777854654 | 18.89° C | 78% | 1019.2 hPa | 0 mm | - | - | - |
| 1777852854 | 17.78° C | 81% | 1019.5 hPa | 0 mm | - | - | - |
| 1777851053 | 16.11° C | 92% | 1019.5 hPa | 0 mm | - | - | - |
| 1777849254 | 14.44° C | 98% | 1019.4 hPa | 0 mm | - | - | - |
| 1777847453 | 14.44° C | 99% | 1019.2 hPa | 0 mm | - | - | - |
| 1777845653 | 13.33° C | 99% | 1019.2 hPa | 0 mm | - | - | - |
| 1777843854 | 13.33° C | 99% | 1019 hPa | 0.25 mm | - | - | - |
| 1777842053 | 12.78° C | 99% | 1018.8 hPa | 0.25 mm | - | - | - |
| 1777840254 | 12.22° C | 98% | 1018.4 hPa | 0 mm | - | - | - |
| 1777838453 | 12.22° C | 98% | 1018.2 hPa | 0 mm | - | - | - |
| 1777836653 | 12.22° C | 98% | 1017.8 hPa | 0 mm | - | - | - |
| 1777834854 | 12.22° C | 98% | 1017.9 hPa | 0 mm | - | - | - |
| 1777833053 | 12.22° C | 98% | 1017.9 hPa | 0 mm | - | - | - |
| 1777831254 | 12.22° C | 98% | 1018.1 hPa | 0 mm | - | - | - |
| 1777829453 | 12.22° C | 98% | 1018 hPa | 0 mm | - | - | - |
| 1777827654 | 12.22° C | 98% | 1018.1 hPa | 0 mm | - | - | - |
| 1777825853 | 12.22° C | 97% | 1018.3 hPa | 0 mm | - | - | - |
| 1777824053 | 12.22° C | 97% | 1018.8 hPa | 0 mm | - | - | - |
| 1777822253 | 11.67° C | 97% | 1019.2 hPa | 0 mm | - | - | - |
| 1777818653 | 12.22° C | 96% | 1019.4 hPa | 0 mm | - | - | - |
| 1777816853 | 12.22° C | 96% | 1019.9 hPa | 0 mm | - | - | - |
* Rain latest hour (hover to see other rain measurements)
** Current wind speed in m/s (hover to see current wind gust speed)